createdAt,value
2019-05-18T00:01:28.114Z,11.80
2019-05-18T00:03:56.577Z,11.70
2019-05-18T00:06:25.047Z,11.70
2019-05-18T00:08:53.530Z,11.70
2019-05-18T00:11:22.052Z,11.70
2019-05-18T00:13:50.596Z,11.70
2019-05-18T00:16:19.126Z,11.70
2019-05-18T00:18:47.634Z,11.80
2019-05-18T00:21:16.095Z,11.70
2019-05-18T00:23:44.552Z,11.70
2019-05-18T00:26:13.036Z,11.70
2019-05-18T00:28:41.493Z,11.70
2019-05-18T00:31:10.059Z,11.70
2019-05-18T00:33:38.514Z,11.70
2019-05-18T00:36:07.018Z,11.70
2019-05-18T00:38:35.554Z,11.70
2019-05-18T00:41:04.086Z,11.70
2019-05-18T00:43:32.558Z,11.70
2019-05-18T00:46:01.015Z,11.70
2019-05-18T00:48:29.508Z,11.70
2019-05-18T00:50:57.977Z,11.70
2019-05-18T00:53:26.458Z,11.70
2019-05-18T00:55:54.913Z,11.60
2019-05-18T00:58:23.410Z,11.60
2019-05-18T01:00:51.886Z,11.60
2019-05-18T01:03:20.355Z,11.50
2019-05-18T01:05:48.902Z,11.50
2019-05-18T01:08:17.365Z,11.60
2019-05-18T01:10:45.843Z,11.50
2019-05-18T01:13:14.364Z,11.50
2019-05-18T01:15:42.830Z,11.40
2019-05-18T01:18:11.305Z,11.40
2019-05-18T01:20:40.111Z,11.40
2019-05-18T01:23:08.841Z,11.50
2019-05-18T01:25:37.368Z,11.50
2019-05-18T01:28:05.875Z,11.50
2019-05-18T01:30:34.403Z,11.40
2019-05-18T01:33:03.143Z,11.40
2019-05-18T01:35:31.640Z,11.40
2019-05-18T01:38:00.084Z,11.40
2019-05-18T01:40:28.567Z,11.40
2019-05-18T01:42:57.036Z,11.40
2019-05-18T01:45:25.535Z,11.40
2019-05-18T01:47:54.007Z,11.40
2019-05-18T01:50:22.649Z,11.40
2019-05-18T01:52:51.387Z,11.40
2019-05-18T01:55:19.847Z,11.40
2019-05-18T01:57:48.323Z,11.40
2019-05-18T02:00:17.113Z,11.40
2019-05-18T02:02:45.678Z,11.40
2019-05-18T02:05:14.474Z,11.40
2019-05-18T02:07:42.937Z,11.50
2019-05-18T02:10:11.852Z,11.50
2019-05-18T02:12:40.383Z,11.40
2019-05-18T02:15:09.506Z,11.40
2019-05-18T02:17:38.042Z,11.40
2019-05-18T02:20:07.143Z,11.30
2019-05-18T02:22:35.632Z,11.30
2019-05-18T02:25:07.167Z,11.30
2019-05-18T02:27:35.666Z,11.20
2019-05-18T02:30:06.559Z,11.20
2019-05-18T02:32:35.015Z,11.20
2019-05-18T02:35:05.112Z,11.10
2019-05-18T02:37:33.651Z,11.10
2019-05-18T02:40:02.427Z,11.10
2019-05-18T02:42:31.057Z,10.90
2019-05-18T02:44:59.606Z,10.90
2019-05-18T02:47:28.078Z,10.90
2019-05-18T02:49:56.628Z,10.70
2019-05-18T02:52:25.175Z,10.70
2019-05-18T02:54:53.631Z,10.80
2019-05-18T02:57:22.124Z,10.80
2019-05-18T02:59:50.585Z,10.70
2019-05-18T03:02:19.043Z,10.70
2019-05-18T03:04:47.527Z,10.70
2019-05-18T03:07:16.195Z,10.70
2019-05-18T03:09:44.674Z,10.70
2019-05-18T03:12:13.145Z,10.60
2019-05-18T03:14:41.730Z,10.50
2019-05-18T03:17:10.266Z,10.40
2019-05-18T03:19:38.797Z,10.30
2019-05-18T03:22:07.359Z,10.30
2019-05-18T03:24:35.812Z,10.20
2019-05-18T03:27:04.348Z,10.20
2019-05-18T03:29:32.812Z,10.20
2019-05-18T03:32:01.327Z,10.10
2019-05-18T03:34:29.861Z,10.10
2019-05-18T03:36:58.394Z,10.10
2019-05-18T03:39:26.948Z,10.10
2019-05-18T03:41:55.477Z,10.10
2019-05-18T03:44:23.993Z,10.00
2019-05-18T03:46:52.562Z,10.00
2019-05-18T03:49:26.992Z,9.90
2019-05-18T03:51:51.215Z,9.90
2019-05-18T03:54:19.706Z,9.90
2019-05-18T03:56:48.230Z,9.90
2019-05-18T03:59:16.680Z,9.80
2019-05-18T04:01:45.229Z,9.70
2019-05-18T04:04:13.755Z,9.70
2019-05-18T04:06:42.241Z,9.60
2019-05-18T04:09:10.759Z,9.50
2019-05-18T04:11:39.317Z,9.50
2019-05-18T04:14:08.832Z,9.40
2019-05-18T04:16:37.514Z,9.50
2019-05-18T04:19:05.973Z,9.60
2019-05-18T04:21:34.421Z,9.70
2019-05-18T04:24:02.931Z,9.70
2019-05-18T04:26:31.376Z,9.70
2019-05-18T04:28:59.838Z,9.70
2019-05-18T04:31:31.939Z,9.70
2019-05-18T04:33:58.591Z,9.80
2019-05-18T04:36:27.044Z,9.90
2019-05-18T04:38:55.628Z,10.00
2019-05-18T04:41:24.085Z,9.90
2019-05-18T04:43:52.540Z,9.90
2019-05-18T04:46:21.049Z,9.90
2019-05-18T04:48:49.505Z,10.00
2019-05-18T04:51:17.969Z,10.10
2019-05-18T04:53:46.617Z,10.20
2019-05-18T04:56:15.078Z,10.30
2019-05-18T04:58:43.536Z,10.40
2019-05-18T05:01:12.032Z,10.40
2019-05-18T05:03:40.500Z,10.60
2019-05-18T05:06:08.973Z,10.70
2019-05-18T05:08:37.575Z,10.70
2019-05-18T05:11:06.156Z,10.90
2019-05-18T05:13:34.628Z,11.00
2019-05-18T05:16:03.142Z,11.10
2019-05-18T05:18:31.603Z,11.10
2019-05-18T05:21:00.126Z,11.30
2019-05-18T05:23:28.623Z,11.30
2019-05-18T05:25:57.084Z,11.40
2019-05-18T05:28:25.551Z,11.40
2019-05-18T05:30:54.057Z,11.40
2019-05-18T05:33:22.513Z,11.50
2019-05-18T05:35:50.969Z,11.70
2019-05-18T05:38:19.473Z,11.80
2019-05-18T05:40:47.931Z,11.70
2019-05-18T05:43:16.393Z,11.80
2019-05-18T05:45:44.896Z,11.90
2019-05-18T05:48:13.358Z,12.10
2019-05-18T05:50:41.828Z,12.10
2019-05-18T05:53:10.400Z,12.30
2019-05-18T05:55:38.860Z,12.50
2019-05-18T05:58:07.311Z,12.60
2019-05-18T06:00:35.833Z,12.60
2019-05-18T06:03:04.431Z,12.70
2019-05-18T06:05:32.900Z,12.60
2019-05-18T06:08:01.590Z,12.80
2019-05-18T06:10:30.055Z,13.00
2019-05-18T06:12:58.510Z,12.90
2019-05-18T06:15:27.020Z,13.10
2019-05-18T06:17:55.564Z,13.10
2019-05-18T06:20:24.031Z,13.40
2019-05-18T06:22:52.552Z,13.40
2019-05-18T06:25:21.012Z,13.50
2019-05-18T06:27:49.541Z,13.60
2019-05-18T06:30:18.704Z,13.80
2019-05-18T06:32:47.243Z,13.90
2019-05-18T06:35:15.885Z,13.90
2019-05-18T06:37:44.523Z,13.90
2019-05-18T06:40:13.053Z,13.90
2019-05-18T06:42:41.508Z,13.60
2019-05-18T06:45:10.273Z,13.60
2019-05-18T06:47:38.728Z,13.70
2019-05-18T06:50:12.557Z,13.80
2019-05-18T06:52:40.935Z,13.90
2019-05-18T06:55:11.162Z,14.10
2019-05-18T06:57:40.116Z,14.00
2019-05-18T07:00:10.846Z,14.20
2019-05-18T07:02:39.312Z,14.10
2019-05-18T07:05:08.045Z,14.30
2019-05-18T07:07:36.625Z,14.40
2019-05-18T07:10:09.375Z,14.70
2019-05-18T07:12:37.902Z,14.80
2019-05-18T07:15:08.851Z,14.60
2019-05-18T07:17:37.320Z,14.50
2019-05-18T07:20:06.642Z,14.90
2019-05-18T07:22:35.214Z,14.90
2019-05-18T07:25:05.428Z,14.90
2019-05-18T07:27:33.893Z,14.80
2019-05-18T07:30:02.588Z,15.30
2019-05-18T07:32:31.062Z,15.30
2019-05-18T07:34:59.529Z,14.90
2019-05-18T07:37:28.063Z,14.80
2019-05-18T07:39:56.683Z,14.80
2019-05-18T07:42:25.149Z,15.00
2019-05-18T07:44:53.724Z,15.30
2019-05-18T07:47:22.256Z,15.40
2019-05-18T07:49:50.730Z,15.50
2019-05-18T07:52:19.228Z,15.80
2019-05-18T07:54:47.692Z,15.80
2019-05-18T07:57:16.152Z,15.80
2019-05-18T07:59:44.667Z,15.60
2019-05-18T08:02:13.144Z,15.50
2019-05-18T08:04:41.613Z,15.60
2019-05-18T08:07:10.280Z,15.60
2019-05-18T08:09:38.735Z,15.50
2019-05-18T08:12:07.197Z,15.60
2019-05-18T08:14:35.700Z,15.70
2019-05-18T08:17:04.241Z,15.80
2019-05-18T08:19:32.687Z,15.80
2019-05-18T08:22:01.258Z,15.80
2019-05-18T08:24:29.715Z,15.70
2019-05-18T08:26:58.176Z,15.60
2019-05-18T08:29:26.668Z,15.70
2019-05-18T08:31:55.139Z,15.90
2019-05-18T08:34:23.666Z,15.80
2019-05-18T08:36:52.168Z,15.80
2019-05-18T08:39:20.628Z,16.00
2019-05-18T08:41:49.165Z,16.00
2019-05-18T08:44:17.870Z,15.80
2019-05-18T08:46:46.331Z,16.10
2019-05-18T08:49:14.864Z,16.20
2019-05-18T08:51:43.361Z,16.40
2019-05-18T08:54:11.827Z,16.40
2019-05-18T08:56:40.289Z,16.30
2019-05-18T08:59:08.804Z,16.40
2019-05-18T09:01:37.255Z,16.30
2019-05-18T09:04:05.717Z,16.20
2019-05-18T09:06:34.313Z,16.20
2019-05-18T09:09:04.418Z,16.40
2019-05-18T09:11:32.876Z,16.50
2019-05-18T09:14:01.584Z,16.40
2019-05-18T09:16:30.059Z,16.60
2019-05-18T09:18:58.518Z,17.00
2019-05-18T09:21:27.095Z,16.90
2019-05-18T09:23:55.553Z,17.20
2019-05-18T09:26:24.009Z,17.80
2019-05-18T09:28:52.515Z,17.90
2019-05-18T09:31:20.985Z,18.40
2019-05-18T09:33:49.452Z,18.50
2019-05-18T09:36:17.959Z,18.80
2019-05-18T09:38:46.488Z,18.40
2019-05-18T09:41:14.947Z,18.40
2019-05-18T09:43:43.523Z,18.70
2019-05-18T09:46:11.994Z,18.80
2019-05-18T09:48:40.457Z,18.60
2019-05-18T09:51:08.956Z,18.80
2019-05-18T09:53:50.480Z,19.00
2019-05-18T09:56:07.612Z,18.90
2019-05-18T09:58:36.256Z,19.00
2019-05-18T10:01:04.851Z,19.00
2019-05-18T10:03:33.321Z,19.20
2019-05-18T10:06:01.802Z,19.90
2019-05-18T10:08:30.258Z,19.70
2019-05-18T10:10:58.710Z,19.80
2019-05-18T10:13:27.454Z,19.10
2019-05-18T10:15:55.912Z,19.50
2019-05-18T10:18:24.391Z,19.60
2019-05-18T10:20:52.963Z,19.40
2019-05-18T10:23:21.433Z,19.30
2019-05-18T10:25:49.897Z,20.10
2019-05-18T10:28:18.403Z,20.10
2019-05-18T10:30:46.875Z,20.20
2019-05-18T10:33:15.329Z,19.80
2019-05-18T10:35:43.844Z,19.90
2019-05-18T10:38:12.312Z,20.20
2019-05-18T10:40:40.767Z,20.70
2019-05-18T10:43:09.260Z,20.70
2019-05-18T10:45:37.797Z,20.20
2019-05-18T10:48:06.472Z,20.20
2019-05-18T10:50:35.018Z,20.30
2019-05-18T10:53:03.478Z,20.30
2019-05-18T10:55:31.966Z,20.70
2019-05-18T10:58:00.525Z,21.20
2019-05-18T11:00:29.120Z,20.80
2019-05-18T11:02:57.597Z,20.80
2019-05-18T11:05:26.085Z,20.60
2019-05-18T11:07:54.557Z,20.80
2019-05-18T11:10:23.519Z,21.10
2019-05-18T11:12:52.333Z,21.10
2019-05-18T11:15:21.361Z,21.20
2019-05-18T11:17:49.965Z,21.20
2019-05-18T11:20:18.912Z,21.00
2019-05-18T11:22:47.429Z,20.90
2019-05-18T11:25:16.409Z,19.90
2019-05-18T11:27:44.926Z,20.40
2019-05-18T11:30:14.592Z,20.60
2019-05-18T11:32:43.046Z,21.40
2019-05-18T11:35:12.309Z,21.00
2019-05-18T11:37:40.982Z,20.70
2019-05-18T11:40:11.800Z,20.60
2019-05-18T11:42:40.434Z,21.10
2019-05-18T11:45:11.502Z,20.90
2019-05-18T11:47:39.942Z,20.90
2019-05-18T11:50:09.525Z,20.70
2019-05-18T11:52:38.204Z,21.20
2019-05-18T11:55:07.895Z,20.90
2019-05-18T11:57:36.539Z,20.90
2019-05-18T12:00:10.509Z,21.60
2019-05-18T12:02:38.972Z,21.80
2019-05-18T12:05:08.216Z,21.60
2019-05-18T12:07:36.686Z,21.40
2019-05-18T12:10:07.228Z,21.70
2019-05-18T12:12:35.928Z,21.10
2019-05-18T12:15:08.850Z,21.00
2019-05-18T12:17:37.462Z,21.30
2019-05-18T12:20:09.968Z,21.00
2019-05-18T12:22:38.525Z,20.70
2019-05-18T12:25:08.675Z,21.50
2019-05-18T12:27:37.302Z,22.20
2019-05-18T12:30:08.092Z,22.20
2019-05-18T12:32:36.552Z,22.20
2019-05-18T12:35:07.397Z,22.00
2019-05-18T12:37:35.856Z,22.30
2019-05-18T12:40:06.666Z,22.30
2019-05-18T12:42:35.175Z,22.70
2019-05-18T12:45:04.040Z,21.90
2019-05-18T12:47:32.502Z,21.00
2019-05-18T12:50:00.994Z,20.80
2019-05-18T12:52:29.521Z,20.70
2019-05-18T12:54:57.982Z,21.10
2019-05-18T12:57:26.633Z,21.10
2019-05-18T12:59:55.107Z,21.70
2019-05-18T13:02:23.645Z,22.30
2019-05-18T13:04:52.205Z,22.50
2019-05-18T13:07:20.684Z,22.60
2019-05-18T13:09:49.496Z,22.60
2019-05-18T13:12:17.990Z,22.60
2019-05-18T13:14:46.461Z,22.40
2019-05-18T13:17:14.918Z,22.30
2019-05-18T13:19:43.481Z,22.50
2019-05-18T13:22:11.945Z,22.60
2019-05-18T13:24:45.177Z,23.20
2019-05-18T13:27:10.645Z,23.00
2019-05-18T13:29:39.106Z,23.10
2019-05-18T13:32:07.629Z,23.30
2019-05-18T13:34:36.122Z,23.20
2019-05-18T13:37:04.585Z,23.40
2019-05-18T13:39:33.074Z,23.30
2019-05-18T13:42:01.644Z,22.60
2019-05-18T13:44:30.095Z,22.60
2019-05-18T13:46:58.629Z,22.50
2019-05-18T13:49:27.242Z,22.40
2019-05-18T13:51:55.724Z,22.60
2019-05-18T13:54:24.185Z,22.60
2019-05-18T13:56:52.667Z,22.70
2019-05-18T13:59:21.118Z,22.30
2019-05-18T14:01:49.584Z,22.20
2019-05-18T14:04:18.080Z,21.80
2019-05-18T14:06:46.541Z,22.20
2019-05-18T14:09:15.006Z,22.40
2019-05-18T14:11:43.502Z,22.30
2019-05-18T14:14:11.968Z,21.90
2019-05-18T14:16:40.428Z,21.60
2019-05-18T14:19:09.001Z,21.70
2019-05-18T14:21:37.472Z,21.60
2019-05-18T14:24:05.930Z,21.80
2019-05-18T14:26:34.446Z,21.50
2019-05-18T14:29:03.029Z,21.40
2019-05-18T14:31:31.561Z,21.30
2019-05-18T14:34:00.137Z,21.50
2019-05-18T14:36:28.595Z,21.40
2019-05-18T14:38:57.102Z,21.40
2019-05-18T14:41:25.620Z,21.50
2019-05-18T14:43:54.082Z,21.60
2019-05-18T14:46:22.547Z,21.90
2019-05-18T14:48:51.047Z,21.80
2019-05-18T14:51:19.494Z,21.80
2019-05-18T14:53:47.952Z,21.70
2019-05-18T14:56:16.453Z,21.60
2019-05-18T14:58:44.928Z,21.60
2019-05-18T15:01:13.384Z,21.60
2019-05-18T15:03:41.965Z,21.80
2019-05-18T15:06:10.420Z,21.70
2019-05-18T15:08:38.881Z,21.70
2019-05-18T15:11:07.450Z,21.70
2019-05-18T15:13:35.976Z,21.70
2019-05-18T15:16:05.361Z,21.60
2019-05-18T15:18:33.862Z,21.90
2019-05-18T15:21:02.323Z,21.80
2019-05-18T15:23:30.795Z,21.70
2019-05-18T15:25:59.308Z,21.50
2019-05-18T15:28:27.761Z,21.50
2019-05-18T15:30:56.223Z,21.50
2019-05-18T15:33:24.720Z,21.50
2019-05-18T15:35:53.181Z,21.40
2019-05-18T15:38:21.636Z,21.40
2019-05-18T15:40:50.140Z,21.40
2019-05-18T15:43:18.587Z,21.50
2019-05-18T15:45:47.048Z,21.40
2019-05-18T15:48:15.541Z,21.50
2019-05-18T15:50:44.078Z,21.50
2019-05-18T15:53:12.601Z,21.40
2019-05-18T15:55:41.097Z,21.40
2019-05-18T15:58:09.548Z,21.30
2019-05-18T16:00:38.080Z,21.20
2019-05-18T16:03:06.641Z,21.20
2019-05-18T16:05:35.755Z,21.10
2019-05-18T16:08:04.423Z,21.00
2019-05-18T16:10:32.964Z,21.00
2019-05-18T16:13:01.502Z,21.00
2019-05-18T16:15:30.156Z,21.10
2019-05-18T16:17:58.656Z,21.10
2019-05-18T16:20:46.553Z,21.20
2019-05-18T16:23:15.042Z,21.00
2019-05-18T16:25:44.141Z,20.90
2019-05-18T16:28:12.603Z,20.80
2019-05-18T16:30:41.237Z,20.80
2019-05-18T16:33:09.689Z,20.80
2019-05-18T16:35:38.145Z,20.60
2019-05-18T16:38:06.635Z,20.70
2019-05-18T16:40:35.113Z,20.70
2019-05-18T16:43:03.643Z,20.70
2019-05-18T16:45:32.148Z,20.60
2019-05-18T16:48:00.597Z,20.60
2019-05-18T16:50:29.076Z,20.60
2019-05-18T16:52:57.650Z,20.50
2019-05-18T16:55:26.103Z,20.40
2019-05-18T16:57:54.591Z,20.40
2019-05-18T17:00:23.787Z,20.40
2019-05-18T17:02:52.263Z,20.40
2019-05-18T17:05:20.795Z,20.40
2019-05-18T17:07:49.368Z,20.30
2019-05-18T17:10:18.869Z,20.20
2019-05-18T17:12:47.348Z,20.20
2019-05-18T17:15:16.417Z,20.20
2019-05-18T17:17:44.948Z,20.20
2019-05-18T17:20:14.018Z,20.20
2019-05-18T17:22:42.534Z,20.10
2019-05-18T17:25:12.680Z,20.10
2019-05-18T17:27:41.149Z,19.90
2019-05-18T17:30:10.949Z,19.70
2019-05-18T17:32:39.407Z,19.30
2019-05-18T17:35:08.813Z,19.10
2019-05-18T17:37:37.316Z,18.90
2019-05-18T17:40:07.442Z,18.80
2019-05-18T17:42:35.967Z,18.80
2019-05-18T17:45:07.421Z,18.70
2019-05-18T17:47:35.890Z,18.60
2019-05-18T17:50:07.561Z,18.60
2019-05-18T17:52:36.086Z,18.50
2019-05-18T17:55:06.156Z,18.50
2019-05-18T17:57:34.622Z,18.50
2019-05-18T18:00:04.666Z,18.40
2019-05-18T18:02:33.203Z,18.40
2019-05-18T18:05:01.660Z,18.50
2019-05-18T18:07:30.146Z,18.50
2019-05-18T18:09:58.610Z,18.60
2019-05-18T18:12:27.149Z,18.60
2019-05-18T18:14:55.655Z,18.60
2019-05-18T18:17:24.127Z,18.60
2019-05-18T18:19:52.647Z,18.60
2019-05-18T18:22:23.743Z,18.70
2019-05-18T18:24:51.347Z,18.60
2019-05-18T18:27:25.298Z,18.60
2019-05-18T18:29:50.191Z,18.70
2019-05-18T18:32:18.735Z,18.70
2019-05-18T18:34:47.202Z,18.30
2019-05-18T18:37:15.702Z,18.20
2019-05-18T18:39:44.174Z,18.00
2019-05-18T18:42:12.705Z,18.10
2019-05-18T18:44:41.208Z,18.10
2019-05-18T18:47:09.669Z,18.20
2019-05-18T18:49:38.131Z,18.20
2019-05-18T18:52:06.720Z,18.20
2019-05-18T18:54:35.254Z,18.00
2019-05-18T18:57:03.765Z,18.10
2019-05-18T18:59:32.264Z,18.00
2019-05-18T19:02:00.737Z,18.00
2019-05-18T19:04:29.362Z,18.00
2019-05-18T19:06:57.926Z,17.90
2019-05-18T19:09:26.385Z,17.90
2019-05-18T19:11:54.848Z,17.80
2019-05-18T19:14:23.537Z,17.80
2019-05-18T19:16:52.135Z,17.80
2019-05-18T19:19:20.618Z,17.80
2019-05-18T19:21:49.132Z,17.60
2019-05-18T19:24:17.582Z,17.70
2019-05-18T19:26:46.045Z,17.80
2019-05-18T19:29:14.742Z,17.80
2019-05-18T19:31:43.203Z,17.70
2019-05-18T19:34:11.661Z,17.70
2019-05-18T19:36:40.379Z,17.70
2019-05-18T19:39:08.840Z,17.80
2019-05-18T19:41:37.408Z,17.80
2019-05-18T19:44:05.943Z,17.80
2019-05-18T19:46:34.420Z,17.80
2019-05-18T19:49:02.944Z,17.90
2019-05-18T19:51:31.471Z,17.80
2019-05-18T19:53:59.974Z,17.80
2019-05-18T19:56:28.430Z,17.80
2019-05-18T19:58:56.939Z,17.80
2019-05-18T20:01:25.481Z,17.80
2019-05-18T20:03:53.961Z,17.70
2019-05-18T20:06:22.451Z,17.70
2019-05-18T20:08:51.030Z,17.60
2019-05-18T20:11:19.568Z,17.60
2019-05-18T20:13:48.054Z,17.50
2019-05-18T20:16:16.575Z,17.60
2019-05-18T20:18:45.041Z,17.50
2019-05-18T20:21:13.504Z,17.50
2019-05-18T20:23:42.074Z,17.50
2019-05-18T20:26:10.543Z,17.40
2019-05-18T20:28:39.071Z,17.40
2019-05-18T20:31:07.640Z,17.40
2019-05-18T20:33:36.103Z,17.30
2019-05-18T20:36:04.582Z,17.40
2019-05-18T20:38:33.054Z,17.40
2019-05-18T20:41:01.554Z,17.40
2019-05-18T20:43:30.017Z,17.40
2019-05-18T20:45:58.509Z,17.30
2019-05-18T20:48:27.166Z,17.30
2019-05-18T20:50:55.621Z,17.20
2019-05-18T20:53:24.106Z,17.30
2019-05-18T20:55:52.574Z,17.30
2019-05-18T20:58:21.156Z,17.30
2019-05-18T21:00:49.694Z,17.20
2019-05-18T21:03:18.169Z,17.20
2019-05-18T21:05:46.719Z,17.20
2019-05-18T21:08:15.179Z,17.20
2019-05-18T21:10:44.700Z,17.10
2019-05-18T21:13:13.165Z,17.10
2019-05-18T21:15:41.664Z,17.00
2019-05-18T21:18:10.137Z,17.10
2019-05-18T21:20:38.598Z,17.00
2019-05-18T21:23:07.076Z,17.00
2019-05-18T21:25:35.564Z,16.90
2019-05-18T21:28:04.055Z,16.90
2019-05-18T21:30:32.581Z,16.90
2019-05-18T21:33:01.091Z,16.80
2019-05-18T21:35:29.562Z,16.80
2019-05-18T21:37:58.027Z,16.80
2019-05-18T21:40:26.596Z,16.70
2019-05-18T21:42:55.135Z,16.80
2019-05-18T21:45:23.600Z,16.70
2019-05-18T21:47:52.069Z,16.70
2019-05-18T21:50:20.645Z,16.70
2019-05-18T21:52:49.104Z,16.70
2019-05-18T21:55:17.563Z,16.60
2019-05-18T21:57:46.029Z,16.60
2019-05-18T22:00:15.130Z,16.60
2019-05-18T22:02:43.847Z,16.50
2019-05-18T22:05:12.553Z,16.60
2019-05-18T22:07:41.062Z,16.60
2019-05-18T22:10:23.444Z,16.50
2019-05-18T22:12:40.163Z,16.50
2019-05-18T22:15:09.274Z,16.50
2019-05-18T22:17:56.069Z,16.50
2019-05-18T22:20:24.568Z,16.40
2019-05-18T22:22:53.086Z,16.40
2019-05-18T22:25:21.598Z,16.50
2019-05-18T22:27:50.150Z,16.50
2019-05-18T22:30:18.718Z,16.50
2019-05-18T22:32:47.237Z,16.40
2019-05-18T22:35:15.716Z,16.40
2019-05-18T22:37:44.268Z,16.40
2019-05-18T22:40:12.943Z,16.30
2019-05-18T22:42:41.458Z,16.30
2019-05-18T22:45:10.903Z,16.20
2019-05-18T22:47:39.372Z,16.30
2019-05-18T22:50:08.584Z,16.20
2019-05-18T22:52:37.049Z,16.30
2019-05-18T22:55:06.862Z,16.30
2019-05-18T22:57:35.340Z,16.20
2019-05-18T23:00:06.038Z,16.20
2019-05-18T23:02:34.506Z,16.10
2019-05-18T23:05:02.972Z,16.20
2019-05-18T23:07:31.456Z,16.10
2019-05-18T23:09:59.918Z,16.10
2019-05-18T23:12:28.467Z,16.10
2019-05-18T23:14:56.946Z,16.00
2019-05-18T23:17:25.433Z,15.90
2019-05-18T23:19:53.895Z,16.00
2019-05-18T23:22:22.373Z,16.00
2019-05-18T23:24:50.928Z,16.00
2019-05-18T23:27:19.451Z,15.90
2019-05-18T23:29:47.926Z,16.00
2019-05-18T23:32:16.400Z,15.90
2019-05-18T23:34:44.876Z,16.00
2019-05-18T23:37:13.366Z,15.80
2019-05-18T23:39:41.826Z,15.80
2019-05-18T23:42:10.315Z,15.70
2019-05-18T23:44:38.767Z,15.70
2019-05-18T23:47:07.223Z,15.70
2019-05-18T23:49:35.709Z,15.70
2019-05-18T23:52:04.173Z,15.70
2019-05-18T23:54:32.795Z,15.70
2019-05-18T23:57:01.267Z,15.50
2019-05-18T23:59:29.720Z,15.50
